KEUG/EUG METAR and TAF weather

Enter ICAO airport designator
Station Type Date Time Source
KEUG METAR 2019/06/27 07:54 UTC NOAA

KEUG 270754Z AUTO 17007KT 10SM BKN065 OVC080 13/09 A3002 RMK AO2 SLP165 T01280089 402390106


Station Type Date Time Source
KEUG Decoded METAR 2019/06/27 07:54 UTC NOAA

MAHLON SWEET FIELD, OR, United States (KEUG) 44-08N 123-13W 114M
Jun 27, 2019 - 03:54 AM EDT / 2019.06.27 0754 UTC
Wind: from the S (170 degrees) at 8 MPH (7 KT):0
Visibility: 10 mile(s):0
Sky conditions: overcast
Temperature: 55.0 F (12.8 C)
Dew Point: 48.0 F (8.9 C)
Relative Humidity: 77%
Pressure (altimeter): 30.02 in. Hg (1016 hPa)
ob: KEUG 270754Z AUTO 17007KT 10SM BKN065 OVC080 13/09 A3002 RMK AO2 SLP165 T01280089 402390106
cycle: 8

Station Type Date Time Source
KEUG TAF 2019/06/27 06:22 UTC NOAA

TAF KEUG 270520Z 2706/2806 VRB04KT P6SM VCSH BKN035 BKN050
FM270900 18006KT P6SM VCSH BKN060 OVC120
FM271700 18006KT P6SM -SHRA OVC050

Example: see airport list